createdAt,value
2023-01-21T00:02:37.647Z,-0.90
2023-01-21T00:06:42.223Z,-0.90
2023-01-21T00:10:45.128Z,-0.90
2023-01-21T00:14:48.009Z,-0.90
2023-01-21T00:18:50.824Z,-0.90
2023-01-21T00:22:55.229Z,-0.90
2023-01-21T00:26:58.065Z,-0.90
2023-01-21T00:35:04.225Z,-1.00
2023-01-21T00:39:08.913Z,-1.00
2023-01-21T00:51:18.372Z,-1.10
2023-01-21T00:55:22.564Z,-1.10
2023-01-21T00:59:27.248Z,-1.20
2023-01-21T01:03:30.109Z,-1.20
2023-01-21T01:07:32.937Z,-1.20
2023-01-21T01:11:37.128Z,-1.20
2023-01-21T01:15:40.010Z,-1.20
2023-01-21T01:19:42.846Z,-0.80
2023-01-21T01:23:46.030Z,-1.20
2023-01-21T01:27:50.187Z,-1.20
2023-01-21T01:31:53.110Z,-1.20
2023-01-21T01:35:55.985Z,-1.30
2023-01-21T01:39:58.797Z,-1.30
2023-01-21T01:44:04.214Z,-1.30
2023-01-21T01:48:07.088Z,-1.30
2023-01-21T01:52:12.040Z,-1.30
2023-01-21T01:56:16.029Z,-1.30
2023-01-21T02:00:21.148Z,-1.40
2023-01-21T02:04:25.769Z,-1.40
2023-01-21T02:08:29.230Z,-1.40
2023-01-21T02:12:32.058Z,-1.40
2023-01-21T02:16:42.567Z,-1.40
2023-01-21T02:20:57.843Z,-1.30
2023-01-21T02:25:30.713Z,-1.30
2023-01-21T02:29:59.177Z,-1.20
2023-01-21T02:34:13.147Z,-1.10
2023-01-21T02:38:19.323Z,-1.00
2023-01-21T02:42:25.817Z,-0.90
2023-01-21T02:46:32.674Z,-0.90
2023-01-21T02:50:37.611Z,-0.80
2023-01-21T02:54:50.970Z,-0.70
2023-01-21T02:58:55.713Z,-0.60
2023-01-21T03:03:23.242Z,-0.50
2023-01-21T03:07:30.239Z,-0.50
2023-01-21T03:11:33.460Z,-0.40
2023-01-21T03:15:54.978Z,-0.30
2023-01-21T03:20:00.784Z,-0.30
2023-01-21T03:24:05.405Z,-0.20
2023-01-21T03:28:10.540Z,-0.10
2023-01-21T03:32:15.509Z,-0.10
2023-01-21T03:36:22.596Z,0.00
2023-01-21T03:40:27.832Z,0.00
2023-01-21T03:44:30.704Z,0.10
2023-01-21T03:48:38.022Z,0.10
2023-01-21T03:52:41.399Z,0.20
2023-01-21T03:56:45.628Z,0.20
2023-01-21T04:00:49.311Z,0.30
2023-01-21T04:04:53.227Z,0.30
2023-01-21T04:08:56.075Z,0.30
2023-01-21T04:13:00.203Z,0.30
2023-01-21T04:17:03.112Z,0.40
2023-01-21T04:21:05.940Z,0.40
2023-01-21T04:25:09.044Z,0.40
2023-01-21T04:29:13.226Z,0.50
2023-01-21T04:33:16.367Z,0.50
2023-01-21T04:37:19.339Z,0.50
2023-01-21T04:41:25.156Z,0.50
2023-01-21T04:45:29.590Z,0.60
2023-01-21T04:49:32.395Z,0.60
2023-01-21T04:53:35.248Z,0.60
2023-01-21T04:57:38.044Z,0.70
2023-01-21T05:01:42.217Z,0.60
2023-01-21T05:05:45.045Z,0.70
2023-01-21T05:09:47.844Z,0.70
2023-01-21T05:13:50.694Z,0.70
2023-01-21T05:17:54.866Z,0.70
2023-01-21T05:21:57.669Z,0.70
2023-01-21T05:26:00.540Z,0.80
2023-01-21T05:30:03.380Z,0.80
2023-01-21T05:34:07.684Z,0.80
2023-01-21T05:38:10.509Z,0.80
2023-01-21T05:42:13.295Z,0.80
2023-01-21T05:46:16.138Z,0.80
2023-01-21T05:50:20.507Z,0.80
2023-01-21T05:54:23.373Z,0.80
2023-01-21T05:58:26.241Z,0.80
2023-01-21T06:02:29.112Z,0.80
2023-01-21T06:06:33.406Z,0.80
2023-01-21T06:10:36.321Z,0.80
2023-01-21T06:14:39.158Z,0.80
2023-01-21T06:18:41.993Z,0.80
2023-01-21T06:22:49.031Z,0.90
2023-01-21T06:26:51.944Z,0.90
2023-01-21T06:30:54.833Z,0.90
2023-01-21T06:34:57.722Z,0.80
2023-01-21T06:39:01.884Z,0.90
2023-01-21T06:43:04.709Z,0.90
2023-01-21T06:47:07.573Z,0.90
2023-01-21T06:51:10.447Z,0.90
2023-01-21T06:55:15.066Z,0.90
2023-01-21T06:59:17.937Z,0.90
2023-01-21T07:03:22.540Z,0.90
2023-01-21T07:07:25.417Z,0.90
2023-01-21T07:11:29.597Z,0.90
2023-01-21T07:15:32.524Z,1.00
2023-01-21T07:19:35.446Z,1.00
2023-01-21T07:23:38.279Z,1.00
2023-01-21T07:27:43.085Z,1.00
2023-01-21T07:31:45.936Z,1.00
2023-01-21T07:35:48.919Z,1.00
2023-01-21T07:39:53.788Z,1.10
2023-01-21T07:43:58.770Z,1.10
2023-01-21T07:48:01.621Z,1.10
2023-01-21T07:52:04.537Z,1.10
2023-01-21T07:56:07.879Z,1.10
2023-01-21T08:00:13.047Z,1.10
2023-01-21T08:04:16.044Z,1.10
2023-01-21T08:08:18.833Z,1.20
2023-01-21T08:12:21.744Z,1.20
2023-01-21T08:16:25.952Z,1.20
2023-01-21T08:20:28.848Z,1.20
2023-01-21T08:24:31.690Z,1.30
2023-01-21T08:28:35.965Z,1.30
2023-01-21T08:32:40.481Z,1.30
2023-01-21T08:36:43.293Z,1.30
2023-01-21T08:40:46.117Z,1.40
2023-01-21T08:44:51.066Z,1.40
2023-01-21T08:48:55.230Z,1.40
2023-01-21T08:52:58.063Z,1.50
2023-01-21T08:57:00.881Z,1.50
2023-01-21T09:01:07.202Z,1.50
2023-01-21T09:05:12.091Z,1.60
2023-01-21T09:09:15.133Z,1.60
2023-01-21T09:13:19.997Z,1.60
2023-01-21T09:17:23.484Z,1.70
2023-01-21T09:21:27.880Z,1.70
2023-01-21T09:25:30.717Z,1.70
2023-01-21T09:29:33.549Z,1.80
2023-01-21T09:33:38.540Z,1.80
2023-01-21T09:37:42.692Z,1.80
2023-01-21T09:41:49.612Z,1.90
2023-01-21T09:45:54.335Z,1.90
2023-01-21T09:49:59.535Z,2.00
2023-01-21T09:54:05.433Z,2.00
2023-01-21T09:58:13.092Z,2.00
2023-01-21T10:02:19.260Z,2.00
2023-01-21T10:06:33.835Z,2.00
2023-01-21T10:10:42.998Z,2.00
2023-01-21T10:14:57.622Z,2.10
2023-01-21T10:19:02.337Z,2.10
2023-01-21T10:23:07.225Z,2.10
2023-01-21T10:27:12.031Z,2.10
2023-01-21T10:31:21.425Z,2.10
2023-01-21T10:35:32.164Z,2.20
2023-01-21T10:39:39.842Z,2.20
2023-01-21T10:43:48.645Z,2.20
2023-01-21T10:47:53.404Z,2.20
2023-01-21T10:51:58.646Z,2.30
2023-01-21T10:56:04.390Z,2.30
2023-01-21T11:00:17.533Z,2.30
2023-01-21T11:04:21.293Z,2.30
2023-01-21T11:08:24.879Z,2.40
2023-01-21T11:12:31.297Z,2.40
2023-01-21T11:16:43.076Z,2.40
2023-01-21T11:20:46.101Z,2.50
2023-01-21T11:24:50.279Z,2.50
2023-01-21T11:29:07.030Z,2.60
2023-01-21T11:33:23.219Z,2.70
2023-01-21T11:37:27.183Z,2.70
2023-01-21T11:41:30.281Z,2.80
2023-01-21T11:45:36.146Z,2.90
2023-01-21T11:49:46.937Z,2.90
2023-01-21T11:53:49.763Z,2.90
2023-01-21T11:57:54.541Z,3.00
2023-01-21T12:01:59.000Z,3.00
2023-01-21T12:06:03.816Z,3.00
2023-01-21T12:10:09.432Z,3.10
2023-01-21T12:14:19.886Z,3.10
2023-01-21T12:18:28.871Z,3.10
2023-01-21T12:22:40.374Z,3.10
2023-01-21T12:26:45.520Z,3.10
2023-01-21T12:30:52.705Z,3.10
2023-01-21T12:34:58.345Z,3.10
2023-01-21T12:39:12.738Z,3.10
2023-01-21T12:43:17.679Z,3.10
2023-01-21T12:47:23.761Z,3.00
2023-01-21T12:51:28.590Z,3.00
2023-01-21T12:55:38.253Z,3.00
2023-01-21T12:59:44.245Z,3.00
2023-01-21T13:03:51.478Z,3.00
2023-01-21T13:07:57.419Z,3.00
2023-01-21T13:12:04.440Z,3.00
2023-01-21T13:16:08.861Z,3.00
2023-01-21T13:20:16.040Z,3.00
2023-01-21T13:24:23.956Z,3.00
2023-01-21T13:28:30.851Z,3.00
2023-01-21T13:32:39.016Z,3.00
2023-01-21T13:36:47.728Z,3.00
2023-01-21T13:40:53.745Z,3.00
2023-01-21T13:45:07.545Z,2.90
2023-01-21T13:49:38.548Z,2.90
2023-01-21T13:53:53.408Z,2.90
2023-01-21T13:58:02.648Z,2.90
2023-01-21T14:02:10.642Z,2.90
2023-01-21T14:06:17.741Z,2.90
2023-01-21T14:10:24.373Z,2.80
2023-01-21T14:14:45.140Z,2.80
2023-01-21T14:18:54.301Z,2.80
2023-01-21T14:23:06.269Z,2.80
2023-01-21T14:27:17.227Z,2.80
2023-01-21T14:31:22.890Z,2.80
2023-01-21T14:35:31.977Z,2.80
2023-01-21T14:39:39.367Z,2.80
2023-01-21T14:43:52.077Z,2.80
2023-01-21T14:47:55.541Z,2.70
2023-01-21T15:05:36.813Z,2.70
2023-01-21T15:09:43.815Z,2.60
2023-01-21T15:13:46.788Z,2.60
2023-01-21T15:18:04.051Z,2.60
2023-01-21T15:22:22.133Z,2.50
2023-01-21T15:26:32.699Z,2.50
2023-01-21T15:30:47.812Z,2.50
2023-01-21T15:35:01.668Z,2.40
2023-01-21T15:39:12.483Z,2.40
2023-01-21T15:43:17.922Z,2.30
2023-01-21T15:47:29.491Z,2.30
2023-01-21T15:51:37.506Z,2.20
2023-01-21T15:55:57.934Z,2.20
2023-01-21T16:00:12.523Z,2.20
2023-01-21T16:04:36.385Z,2.10
2023-01-21T16:08:46.439Z,2.10
2023-01-21T16:12:52.724Z,2.00
2023-01-21T16:17:01.820Z,2.00
2023-01-21T16:21:04.884Z,2.00
2023-01-21T16:25:09.030Z,2.00
2023-01-21T16:29:13.257Z,2.00
2023-01-21T16:33:18.055Z,2.00
2023-01-21T16:37:23.561Z,2.00
2023-01-21T16:41:27.632Z,2.00
2023-01-21T16:45:30.622Z,2.00
2023-01-21T16:49:34.988Z,2.00
2023-01-21T16:53:38.006Z,2.00
2023-01-21T16:57:40.968Z,2.00
2023-01-21T17:01:44.017Z,2.00
2023-01-21T17:05:48.890Z,2.00
2023-01-21T17:09:54.951Z,2.00
2023-01-21T17:13:59.826Z,2.00
2023-01-21T17:18:04.008Z,2.00
2023-01-21T17:22:14.043Z,2.00
2023-01-21T17:26:18.446Z,2.00
2023-01-21T17:30:32.170Z,2.00
2023-01-21T17:34:36.173Z,2.00
2023-01-21T17:38:41.343Z,2.00
2023-01-21T17:42:44.190Z,2.00
2023-01-21T17:46:47.855Z,2.00
2023-01-21T17:50:50.774Z,2.00
2023-01-21T17:55:12.111Z,2.00
2023-01-21T17:59:28.782Z,2.00
2023-01-21T18:03:31.609Z,2.00
2023-01-21T18:07:36.677Z,2.00
2023-01-21T18:11:40.913Z,2.00
2023-01-21T18:15:44.316Z,2.00
2023-01-21T18:19:47.235Z,2.00
2023-01-21T18:23:50.469Z,2.00
2023-01-21T18:27:55.646Z,2.00
2023-01-21T18:31:58.606Z,2.00
2023-01-21T18:36:01.656Z,2.00
2023-01-21T18:40:05.729Z,2.00
2023-01-21T18:44:10.249Z,2.00
2023-01-21T18:48:15.057Z,2.00
2023-01-21T18:52:19.480Z,2.10
2023-01-21T18:56:22.843Z,2.10
2023-01-21T19:00:27.576Z,2.10
2023-01-21T19:04:31.524Z,2.10
2023-01-21T19:08:34.563Z,2.10
2023-01-21T19:12:37.398Z,2.10
2023-01-21T19:16:42.433Z,2.10
2023-01-21T19:20:45.469Z,2.10
2023-01-21T19:24:49.193Z,2.10
2023-01-21T19:28:52.120Z,2.10
2023-01-21T19:32:56.888Z,2.10
2023-01-21T19:36:59.964Z,2.10
2023-01-21T19:41:04.543Z,2.10
2023-01-21T19:45:07.842Z,2.10
2023-01-21T19:49:16.348Z,2.10
2023-01-21T19:53:21.201Z,2.10
2023-01-21T19:57:24.005Z,2.10
2023-01-21T20:01:26.856Z,2.10
2023-01-21T20:05:33.654Z,2.10
2023-01-21T20:09:36.469Z,2.10
2023-01-21T20:13:39.468Z,2.10
2023-01-21T20:17:43.243Z,2.10
2023-01-21T20:22:00.317Z,2.10
2023-01-21T20:26:06.231Z,2.10
2023-01-21T20:30:16.553Z,2.10
2023-01-21T20:34:19.624Z,2.10
2023-01-21T20:38:26.211Z,2.10
2023-01-21T20:46:36.680Z,2.10
2023-01-21T20:50:39.474Z,2.10
2023-01-21T20:54:43.613Z,2.10
2023-01-21T20:58:47.938Z,2.10
2023-01-21T21:02:50.837Z,2.10
2023-01-21T21:06:53.734Z,2.10
2023-01-21T21:10:57.892Z,2.10
2023-01-21T21:15:00.757Z,2.10
2023-01-21T21:19:04.045Z,2.10
2023-01-21T21:23:07.439Z,2.10
2023-01-21T21:27:12.788Z,2.10
2023-01-21T21:31:16.271Z,2.10
2023-01-21T21:35:22.363Z,2.10
2023-01-21T21:39:25.154Z,2.10
2023-01-21T21:43:35.810Z,2.10
2023-01-21T21:47:56.551Z,2.10
2023-01-21T21:52:00.267Z,2.10
2023-01-21T21:56:04.273Z,2.10
2023-01-21T22:00:10.605Z,2.10
2023-01-21T22:04:13.482Z,2.00
2023-01-21T22:08:16.295Z,2.00
2023-01-21T22:12:19.108Z,2.00
2023-01-21T22:16:25.094Z,2.00
2023-01-21T22:20:27.937Z,2.00
2023-01-21T22:24:30.754Z,2.00
2023-01-21T22:28:34.440Z,2.00
2023-01-21T22:32:38.651Z,2.00
2023-01-21T22:36:42.168Z,2.00
2023-01-21T22:40:45.014Z,2.00
2023-01-21T22:44:47.804Z,2.00
2023-01-21T22:48:52.162Z,2.00
2023-01-21T22:52:54.968Z,2.00
2023-01-21T22:56:57.755Z,2.00
2023-01-21T23:01:01.178Z,1.90
2023-01-21T23:05:05.770Z,1.90
2023-01-21T23:09:11.221Z,1.90
2023-01-21T23:13:15.396Z,1.90
2023-01-21T23:17:18.417Z,1.90
2023-01-21T23:21:23.155Z,1.90
2023-01-21T23:25:26.250Z,1.90
2023-01-21T23:29:29.055Z,1.90
2023-01-21T23:33:31.884Z,1.90
2023-01-21T23:37:37.060Z,1.90
2023-01-21T23:41:39.852Z,1.90
2023-01-21T23:45:42.640Z,1.90
2023-01-21T23:49:45.428Z,1.90
2023-01-21T23:53:50.019Z,1.90
2023-01-21T23:57:52.800Z,1.90
